sensor_id;sensor_type;location;lat;lon;timestamp;P1;durP1;ratioP1;P2;durP2;ratioP2
21814;SDS011;11069;48.988;8.450;2023-04-09T00:00:32;8.65;;;7.57;;
21814;SDS011;11069;48.988;8.450;2023-04-09T00:03:01;7.90;;;6.97;;
21814;SDS011;11069;48.988;8.450;2023-04-09T00:05:26;8.25;;;7.45;;
21814;SDS011;11069;48.988;8.450;2023-04-09T00:07:52;8.07;;;7.05;;
21814;SDS011;11069;48.988;8.450;2023-04-09T00:10:18;8.82;;;7.93;;
21814;SDS011;11069;48.988;8.450;2023-04-09T00:12:44;9.43;;;8.45;;
21814;SDS011;11069;48.988;8.450;2023-04-09T00:15:09;10.27;;;8.10;;
21814;SDS011;11069;48.988;8.450;2023-04-09T00:17:35;9.23;;;7.82;;
21814;SDS011;11069;48.988;8.450;2023-04-09T00:20:02;9.05;;;8.15;;
21814;SDS011;11069;48.988;8.450;2023-04-09T00:22:28;10.35;;;8.63;;
21814;SDS011;11069;48.988;8.450;2023-04-09T00:24:54;9.25;;;8.20;;
21814;SDS011;11069;48.988;8.450;2023-04-09T00:27:19;9.02;;;7.78;;
21814;SDS011;11069;48.988;8.450;2023-04-09T00:29:45;11.93;;;8.98;;
21814;SDS011;11069;48.988;8.450;2023-04-09T00:32:11;10.15;;;9.02;;
21814;SDS011;11069;48.988;8.450;2023-04-09T00:34:37;9.75;;;8.52;;
21814;SDS011;11069;48.988;8.450;2023-04-09T00:37:03;9.60;;;8.63;;
21814;SDS011;11069;48.988;8.450;2023-04-09T00:39:29;10.10;;;8.57;;
21814;SDS011;11069;48.988;8.450;2023-04-09T00:41:58;11.13;;;8.95;;
21814;SDS011;11069;48.988;8.450;2023-04-09T00:44:26;9.43;;;8.45;;
21814;SDS011;11069;48.988;8.450;2023-04-09T00:46:53;11.05;;;8.77;;
21814;SDS011;11069;48.988;8.450;2023-04-09T00:49:22;9.23;;;8.32;;
21814;SDS011;11069;48.988;8.450;2023-04-09T00:51:50;9.88;;;8.77;;
21814;SDS011;11069;48.988;8.450;2023-04-09T00:54:16;10.07;;;8.95;;
21814;SDS011;11069;48.988;8.450;2023-04-09T00:56:41;12.63;;;9.10;;
21814;SDS011;11069;48.988;8.450;2023-04-09T00:59:08;10.43;;;8.93;;
21814;SDS011;11069;48.988;8.450;2023-04-09T01:01:34;9.43;;;8.38;;
21814;SDS011;11069;48.988;8.450;2023-04-09T01:04:00;9.73;;;8.63;;
21814;SDS011;11069;48.988;8.450;2023-04-09T01:09:05;10.25;;;8.73;;
21814;SDS011;11069;48.988;8.450;2023-04-09T01:14:36;10.68;;;8.73;;
21814;SDS011;11069;48.988;8.450;2023-04-09T01:17:11;10.05;;;8.90;;
21814;SDS011;11069;48.988;8.450;2023-04-09T01:25:28;13.18;;;9.00;;
21814;SDS011;11069;48.988;8.450;2023-04-09T01:30:47;10.73;;;9.00;;
21814;SDS011;11069;48.988;8.450;2023-04-09T01:33:14;12.45;;;9.63;;
21814;SDS011;11069;48.988;8.450;2023-04-09T01:35:42;9.75;;;8.75;;
21814;SDS011;11069;48.988;8.450;2023-04-09T01:38:11;11.65;;;9.40;;
21814;SDS011;11069;48.988;8.450;2023-04-09T01:40:38;10.15;;;9.00;;
21814;SDS011;11069;48.988;8.450;2023-04-09T01:43:05;12.80;;;9.70;;
21814;SDS011;11069;48.988;8.450;2023-04-09T01:45:32;10.90;;;8.82;;
21814;SDS011;11069;48.988;8.450;2023-04-09T01:48:01;12.40;;;9.35;;
21814;SDS011;11069;48.988;8.450;2023-04-09T01:50:28;11.43;;;9.77;;
21814;SDS011;11069;48.988;8.450;2023-04-09T01:52:54;11.77;;;9.85;;
21814;SDS011;11069;48.988;8.450;2023-04-09T01:55:23;11.65;;;9.48;;
21814;SDS011;11069;48.988;8.450;2023-04-09T01:57:54;11.23;;;9.70;;
21814;SDS011;11069;48.988;8.450;2023-04-09T02:00:20;10.77;;;9.57;;
21814;SDS011;11069;48.988;8.450;2023-04-09T02:08:23;11.30;;;9.38;;
21814;SDS011;11069;48.988;8.450;2023-04-09T02:10:50;11.15;;;9.88;;
21814;SDS011;11069;48.988;8.450;2023-04-09T02:13:20;12.55;;;9.15;;
21814;SDS011;11069;48.988;8.450;2023-04-09T02:15:47;11.57;;;10.35;;
21814;SDS011;11069;48.988;8.450;2023-04-09T02:18:21;11.40;;;9.70;;
21814;SDS011;11069;48.988;8.450;2023-04-09T02:20:55;12.27;;;10.02;;
21814;SDS011;11069;48.988;8.450;2023-04-09T02:23:21;11.05;;;9.52;;
21814;SDS011;11069;48.988;8.450;2023-04-09T02:25:47;12.05;;;10.10;;
21814;SDS011;11069;48.988;8.450;2023-04-09T02:28:13;13.70;;;10.38;;
21814;SDS011;11069;48.988;8.450;2023-04-09T02:30:39;11.68;;;10.23;;
21814;SDS011;11069;48.988;8.450;2023-04-09T02:33:05;10.82;;;9.70;;
21814;SDS011;11069;48.988;8.450;2023-04-09T02:35:30;11.25;;;9.68;;
21814;SDS011;11069;48.988;8.450;2023-04-09T02:37:56;11.73;;;9.80;;
21814;SDS011;11069;48.988;8.450;2023-04-09T02:40:22;11.55;;;10.15;;
21814;SDS011;11069;48.988;8.450;2023-04-09T02:42:48;12.02;;;10.60;;
21814;SDS011;11069;48.988;8.450;2023-04-09T02:45:14;13.13;;;10.93;;
21814;SDS011;11069;48.988;8.450;2023-04-09T02:47:39;11.50;;;9.93;;
21814;SDS011;11069;48.988;8.450;2023-04-09T02:50:05;13.77;;;10.85;;
21814;SDS011;11069;48.988;8.450;2023-04-09T02:52:31;14.35;;;11.10;;
21814;SDS011;11069;48.988;8.450;2023-04-09T02:54:57;13.45;;;11.50;;
21814;SDS011;11069;48.988;8.450;2023-04-09T02:57:22;11.68;;;9.98;;
21814;SDS011;11069;48.988;8.450;2023-04-09T02:59:48;11.80;;;10.05;;
21814;SDS011;11069;48.988;8.450;2023-04-09T03:02:13;13.10;;;10.60;;
21814;SDS011;11069;48.988;8.450;2023-04-09T03:04:39;11.35;;;10.15;;
21814;SDS011;11069;48.988;8.450;2023-04-09T03:07:07;11.45;;;10.25;;
21814;SDS011;11069;48.988;8.450;2023-04-09T03:09:32;13.18;;;10.60;;
21814;SDS011;11069;48.988;8.450;2023-04-09T03:11:58;11.70;;;10.25;;
21814;SDS011;11069;48.988;8.450;2023-04-09T03:14:25;14.60;;;10.98;;
21814;SDS011;11069;48.988;8.450;2023-04-09T03:16:51;12.25;;;10.10;;
21814;SDS011;11069;48.988;8.450;2023-04-09T03:19:17;13.00;;;11.23;;
21814;SDS011;11069;48.988;8.450;2023-04-09T03:21:42;14.93;;;11.80;;
21814;SDS011;11069;48.988;8.450;2023-04-09T03:24:08;15.98;;;12.85;;
21814;SDS011;11069;48.988;8.450;2023-04-09T03:26:33;14.93;;;11.80;;
21814;SDS011;11069;48.988;8.450;2023-04-09T03:29:02;13.48;;;11.40;;
21814;SDS011;11069;48.988;8.450;2023-04-09T03:31:29;16.05;;;11.88;;
21814;SDS011;11069;48.988;8.450;2023-04-09T03:33:54;13.15;;;11.05;;
21814;SDS011;11069;48.988;8.450;2023-04-09T03:36:20;15.35;;;12.30;;
21814;SDS011;11069;48.988;8.450;2023-04-09T03:38:46;16.48;;;13.35;;
21814;SDS011;11069;48.988;8.450;2023-04-09T03:41:12;15.48;;;12.05;;
21814;SDS011;11069;48.988;8.450;2023-04-09T03:43:40;16.70;;;13.02;;
21814;SDS011;11069;48.988;8.450;2023-04-09T03:46:14;14.88;;;11.57;;
21814;SDS011;11069;48.988;8.450;2023-04-09T03:48:41;15.23;;;11.88;;
21814;SDS011;11069;48.988;8.450;2023-04-09T03:51:15;14.88;;;12.38;;
21814;SDS011;11069;48.988;8.450;2023-04-09T03:53:42;16.65;;;12.77;;
21814;SDS011;11069;48.988;8.450;2023-04-09T03:56:08;14.30;;;12.18;;
21814;SDS011;11069;48.988;8.450;2023-04-09T03:58:35;16.40;;;12.85;;
21814;SDS011;11069;48.988;8.450;2023-04-09T04:01:01;16.70;;;13.07;;
21814;SDS011;11069;48.988;8.450;2023-04-09T04:03:27;16.80;;;13.32;;
21814;SDS011;11069;48.988;8.450;2023-04-09T04:05:53;17.02;;;12.57;;
21814;SDS011;11069;48.988;8.450;2023-04-09T04:08:23;19.25;;;13.15;;
21814;SDS011;11069;48.988;8.450;2023-04-09T04:10:49;16.10;;;13.20;;
21814;SDS011;11069;48.988;8.450;2023-04-09T04:13:15;16.67;;;13.10;;
21814;SDS011;11069;48.988;8.450;2023-04-09T04:15:40;16.33;;;13.20;;
21814;SDS011;11069;48.988;8.450;2023-04-09T04:18:06;15.98;;;13.10;;
21814;SDS011;11069;48.988;8.450;2023-04-09T04:20:33;16.83;;;13.00;;
21814;SDS011;11069;48.988;8.450;2023-04-09T04:22:59;17.60;;;13.50;;
21814;SDS011;11069;48.988;8.450;2023-04-09T04:25:27;16.83;;;12.90;;
21814;SDS011;11069;48.988;8.450;2023-04-09T04:27:53;17.77;;;14.02;;
21814;SDS011;11069;48.988;8.450;2023-04-09T04:30:19;16.48;;;13.35;;
21814;SDS011;11069;48.988;8.450;2023-04-09T04:32:45;19.50;;;14.60;;
21814;SDS011;11069;48.988;8.450;2023-04-09T04:35:11;18.00;;;14.55;;
21814;SDS011;11069;48.988;8.450;2023-04-09T04:37:37;19.23;;;14.75;;
21814;SDS011;11069;48.988;8.450;2023-04-09T04:40:04;17.75;;;13.40;;
21814;SDS011;11069;48.988;8.450;2023-04-09T04:42:31;17.50;;;13.45;;
21814;SDS011;11069;48.988;8.450;2023-04-09T04:44:57;17.52;;;13.65;;
21814;SDS011;11069;48.988;8.450;2023-04-09T04:47:23;20.25;;;13.90;;
21814;SDS011;11069;48.988;8.450;2023-04-09T04:49:48;17.65;;;14.20;;
21814;SDS011;11069;48.988;8.450;2023-04-09T04:52:14;19.83;;;14.38;;
21814;SDS011;11069;48.988;8.450;2023-04-09T04:54:40;18.30;;;14.00;;
21814;SDS011;11069;48.988;8.450;2023-04-09T04:57:05;20.45;;;15.07;;
21814;SDS011;11069;48.988;8.450;2023-04-09T04:59:31;18.92;;;13.95;;
21814;SDS011;11069;48.988;8.450;2023-04-09T05:01:56;20.38;;;14.98;;
21814;SDS011;11069;48.988;8.450;2023-04-09T05:04:22;17.83;;;14.45;;
21814;SDS011;11069;48.988;8.450;2023-04-09T05:06:47;18.75;;;14.68;;
21814;SDS011;11069;48.988;8.450;2023-04-09T05:09:13;18.38;;;13.80;;
21814;SDS011;11069;48.988;8.450;2023-04-09T05:11:39;20.85;;;15.93;;
21814;SDS011;11069;48.988;8.450;2023-04-09T05:14:04;19.45;;;15.20;;
21814;SDS011;11069;48.988;8.450;2023-04-09T05:16:30;18.98;;;14.65;;
21814;SDS011;11069;48.988;8.450;2023-04-09T05:18:56;20.15;;;15.15;;
21814;SDS011;11069;48.988;8.450;2023-04-09T05:21:29;19.73;;;15.05;;
21814;SDS011;11069;48.988;8.450;2023-04-09T05:23:55;16.40;;;14.07;;
21814;SDS011;11069;48.988;8.450;2023-04-09T05:26:21;19.48;;;15.20;;
21814;SDS011;11069;48.988;8.450;2023-04-09T05:28:47;19.70;;;14.52;;
21814;SDS011;11069;48.988;8.450;2023-04-09T05:31:13;18.20;;;14.15;;
21814;SDS011;11069;48.988;8.450;2023-04-09T05:33:39;20.08;;;14.95;;
21814;SDS011;11069;48.988;8.450;2023-04-09T05:36:05;19.13;;;15.00;;
21814;SDS011;11069;48.988;8.450;2023-04-09T05:38:31;21.08;;;15.63;;
21814;SDS011;11069;48.988;8.450;2023-04-09T05:40:57;19.90;;;14.85;;
21814;SDS011;11069;48.988;8.450;2023-04-09T05:43:23;18.83;;;14.98;;
21814;SDS011;11069;48.988;8.450;2023-04-09T05:45:48;21.05;;;16.20;;
21814;SDS011;11069;48.988;8.450;2023-04-09T05:48:14;20.98;;;15.95;;
21814;SDS011;11069;48.988;8.450;2023-04-09T05:50:41;20.92;;;16.02;;
21814;SDS011;11069;48.988;8.450;2023-04-09T05:53:06;22.88;;;16.42;;
21814;SDS011;11069;48.988;8.450;2023-04-09T05:55:32;21.38;;;16.08;;
21814;SDS011;11069;48.988;8.450;2023-04-09T05:57:57;20.25;;;15.50;;
21814;SDS011;11069;48.988;8.450;2023-04-09T06:00:23;23.23;;;16.48;;
21814;SDS011;11069;48.988;8.450;2023-04-09T06:02:49;23.23;;;16.77;;
21814;SDS011;11069;48.988;8.450;2023-04-09T06:05:15;22.55;;;17.10;;
21814;SDS011;11069;48.988;8.450;2023-04-09T06:07:40;19.23;;;15.70;;
21814;SDS011;11069;48.988;8.450;2023-04-09T06:10:06;20.55;;;16.00;;
21814;SDS011;11069;48.988;8.450;2023-04-09T06:12:35;21.85;;;16.27;;
21814;SDS011;11069;48.988;8.450;2023-04-09T06:15:01;20.90;;;16.58;;
21814;SDS011;11069;48.988;8.450;2023-04-09T06:17:28;17.85;;;14.93;;
21814;SDS011;11069;48.988;8.450;2023-04-09T06:19:53;18.02;;;15.00;;
21814;SDS011;11069;48.988;8.450;2023-04-09T06:22:19;19.35;;;15.07;;
21814;SDS011;11069;48.988;8.450;2023-04-09T06:24:45;18.65;;;14.43;;
21814;SDS011;11069;48.988;8.450;2023-04-09T06:27:13;19.05;;;14.73;;
21814;SDS011;11069;48.988;8.450;2023-04-09T06:29:43;17.13;;;14.05;;
21814;SDS011;11069;48.988;8.450;2023-04-09T06:32:08;17.73;;;14.38;;
21814;SDS011;11069;48.988;8.450;2023-04-09T06:34:34;18.83;;;14.65;;
21814;SDS011;11069;48.988;8.450;2023-04-09T06:36:59;16.45;;;13.60;;
21814;SDS011;11069;48.988;8.450;2023-04-09T06:39:25;17.38;;;13.85;;
21814;SDS011;11069;48.988;8.450;2023-04-09T06:41:51;16.23;;;13.10;;
21814;SDS011;11069;48.988;8.450;2023-04-09T06:44:17;16.30;;;13.52;;
21814;SDS011;11069;48.988;8.450;2023-04-09T06:46:44;16.50;;;13.45;;
21814;SDS011;11069;48.988;8.450;2023-04-09T06:49:09;14.27;;;12.63;;
21814;SDS011;11069;48.988;8.450;2023-04-09T06:51:35;14.73;;;12.52;;
21814;SDS011;11069;48.988;8.450;2023-04-09T06:54:03;14.38;;;12.20;;
21814;SDS011;11069;48.988;8.450;2023-04-09T06:56:29;17.60;;;13.00;;
21814;SDS011;11069;48.988;8.450;2023-04-09T06:58:54;16.75;;;13.57;;
21814;SDS011;11069;48.988;8.450;2023-04-09T07:01:20;16.85;;;13.50;;
21814;SDS011;11069;48.988;8.450;2023-04-09T07:03:46;16.52;;;14.02;;
21814;SDS011;11069;48.988;8.450;2023-04-09T07:06:11;15.07;;;13.43;;
21814;SDS011;11069;48.988;8.450;2023-04-09T07:08:42;14.35;;;12.82;;
21814;SDS011;11069;48.988;8.450;2023-04-09T07:11:09;15.75;;;13.63;;
21814;SDS011;11069;48.988;8.450;2023-04-09T07:13:35;15.63;;;13.68;;
21814;SDS011;11069;48.988;8.450;2023-04-09T07:16:00;17.52;;;13.90;;
21814;SDS011;11069;48.988;8.450;2023-04-09T07:18:29;16.10;;;13.70;;
21814;SDS011;11069;48.988;8.450;2023-04-09T07:20:55;15.23;;;12.82;;
21814;SDS011;11069;48.988;8.450;2023-04-09T07:23:20;14.23;;;12.23;;
21814;SDS011;11069;48.988;8.450;2023-04-09T07:25:46;14.75;;;12.95;;
21814;SDS011;11069;48.988;8.450;2023-04-09T07:28:12;15.82;;;13.10;;
21814;SDS011;11069;48.988;8.450;2023-04-09T07:30:38;15.80;;;13.95;;
21814;SDS011;11069;48.988;8.450;2023-04-09T07:33:04;15.27;;;13.48;;
21814;SDS011;11069;48.988;8.450;2023-04-09T07:35:29;15.40;;;12.98;;
21814;SDS011;11069;48.988;8.450;2023-04-09T07:37:56;16.45;;;14.40;;
21814;SDS011;11069;48.988;8.450;2023-04-09T07:40:23;18.63;;;13.15;;
21814;SDS011;11069;48.988;8.450;2023-04-09T07:42:51;15.23;;;13.10;;
21814;SDS011;11069;48.988;8.450;2023-04-09T07:45:17;14.57;;;12.80;;
21814;SDS011;11069;48.988;8.450;2023-04-09T07:47:43;14.05;;;12.55;;
21814;SDS011;11069;48.988;8.450;2023-04-09T07:50:09;14.68;;;12.65;;
21814;SDS011;11069;48.988;8.450;2023-04-09T07:52:35;14.15;;;12.25;;
21814;SDS011;11069;48.988;8.450;2023-04-09T07:55:00;15.20;;;12.75;;
21814;SDS011;11069;48.988;8.450;2023-04-09T07:57:26;16.73;;;13.02;;
21814;SDS011;11069;48.988;8.450;2023-04-09T07:59:57;16.20;;;13.55;;
21814;SDS011;11069;48.988;8.450;2023-04-09T08:02:23;14.65;;;12.82;;
21814;SDS011;11069;48.988;8.450;2023-04-09T08:04:49;14.20;;;12.38;;
21814;SDS011;11069;48.988;8.450;2023-04-09T08:07:14;15.45;;;12.40;;
21814;SDS011;11069;48.988;8.450;2023-04-09T08:09:40;15.13;;;13.52;;
21814;SDS011;11069;48.988;8.450;2023-04-09T08:12:06;14.50;;;12.90;;
21814;SDS011;11069;48.988;8.450;2023-04-09T08:14:31;15.40;;;13.07;;
21814;SDS011;11069;48.988;8.450;2023-04-09T08:16:58;17.00;;;13.05;;
21814;SDS011;11069;48.988;8.450;2023-04-09T08:19:25;14.38;;;12.27;;
21814;SDS011;11069;48.988;8.450;2023-04-09T08:21:51;14.77;;;13.10;;
21814;SDS011;11069;48.988;8.450;2023-04-09T08:24:16;14.23;;;12.20;;
21814;SDS011;11069;48.988;8.450;2023-04-09T08:26:45;14.85;;;12.18;;
21814;SDS011;11069;48.988;8.450;2023-04-09T08:29:11;13.75;;;11.80;;
21814;SDS011;11069;48.988;8.450;2023-04-09T08:31:37;16.20;;;12.80;;
21814;SDS011;11069;48.988;8.450;2023-04-09T08:34:03;15.23;;;13.27;;
21814;SDS011;11069;48.988;8.450;2023-04-09T08:36:29;12.80;;;11.38;;
21814;SDS011;11069;48.988;8.450;2023-04-09T08:38:55;14.55;;;12.70;;
21814;SDS011;11069;48.988;8.450;2023-04-09T08:41:22;14.60;;;12.65;;
21814;SDS011;11069;48.988;8.450;2023-04-09T08:43:49;13.05;;;11.60;;
21814;SDS011;11069;48.988;8.450;2023-04-09T08:46:17;12.70;;;11.23;;
21814;SDS011;11069;48.988;8.450;2023-04-09T08:48:43;12.63;;;10.98;;
21814;SDS011;11069;48.988;8.450;2023-04-09T08:51:13;14.15;;;11.88;;
21814;SDS011;11069;48.988;8.450;2023-04-09T08:53:41;12.45;;;10.52;;
21814;SDS011;11069;48.988;8.450;2023-04-09T08:56:11;11.25;;;9.80;;
21814;SDS011;11069;48.988;8.450;2023-04-09T08:58:43;10.60;;;8.70;;
21814;SDS011;11069;48.988;8.450;2023-04-09T09:01:19;9.63;;;8.63;;
21814;SDS011;11069;48.988;8.450;2023-04-09T09:06:20;7.95;;;7.15;;
21814;SDS011;11069;48.988;8.450;2023-04-09T09:11:37;7.15;;;6.45;;
21814;SDS011;11069;48.988;8.450;2023-04-09T09:14:14;7.97;;;6.88;;
21814;SDS011;11069;48.988;8.450;2023-04-09T09:16:42;7.82;;;7.05;;
21814;SDS011;11069;48.988;8.450;2023-04-09T09:19:28;7.53;;;6.75;;
21814;SDS011;11069;48.988;8.450;2023-04-09T09:24:30;6.45;;;5.85;;
21814;SDS011;11069;48.988;8.450;2023-04-09T09:26:59;7.70;;;6.30;;
21814;SDS011;11069;48.988;8.450;2023-04-09T09:29:26;6.95;;;6.28;;
21814;SDS011;11069;48.988;8.450;2023-04-09T09:31:54;5.97;;;5.47;;
21814;SDS011;11069;48.988;8.450;2023-04-09T09:34:23;5.72;;;5.22;;
21814;SDS011;11069;48.988;8.450;2023-04-09T09:36:49;6.18;;;5.57;;
21814;SDS011;11069;48.988;8.450;2023-04-09T09:39:15;5.95;;;5.35;;
21814;SDS011;11069;48.988;8.450;2023-04-09T09:41:42;6.57;;;5.68;;
21814;SDS011;11069;48.988;8.450;2023-04-09T09:44:10;6.18;;;5.07;;
21814;SDS011;11069;48.988;8.450;2023-04-09T09:46:37;4.85;;;4.35;;
21814;SDS011;11069;48.988;8.450;2023-04-09T09:49:05;5.55;;;4.88;;
21814;SDS011;11069;48.988;8.450;2023-04-09T09:51:31;7.03;;;4.80;;
21814;SDS011;11069;48.988;8.450;2023-04-09T09:54:00;4.97;;;4.55;;
21814;SDS011;11069;48.988;8.450;2023-04-09T09:56:30;5.35;;;4.72;;
21814;SDS011;11069;48.988;8.450;2023-04-09T09:59:05;4.65;;;4.25;;
21814;SDS011;11069;48.988;8.450;2023-04-09T10:01:31;4.97;;;4.50;;
21814;SDS011;11069;48.988;8.450;2023-04-09T10:03:59;4.53;;;4.13;;
21814;SDS011;11069;48.988;8.450;2023-04-09T10:06:26;5.35;;;4.85;;
21814;SDS011;11069;48.988;8.450;2023-04-09T10:08:58;7.57;;;5.70;;
21814;SDS011;11069;48.988;8.450;2023-04-09T10:11:28;4.67;;;4.27;;
21814;SDS011;11069;48.988;8.450;2023-04-09T10:13:56;6.30;;;5.65;;
21814;SDS011;11069;48.988;8.450;2023-04-09T10:16:23;6.93;;;6.00;;
21814;SDS011;11069;48.988;8.450;2023-04-09T10:18:50;8.13;;;7.32;;
21814;SDS011;11069;48.988;8.450;2023-04-09T10:23:55;4.28;;;3.88;;
21814;SDS011;11069;48.988;8.450;2023-04-09T10:26:23;3.65;;;3.35;;
21814;SDS011;11069;48.988;8.450;2023-04-09T10:29:10;3.97;;;3.58;;
21814;SDS011;11069;48.988;8.450;2023-04-09T10:34:15;4.30;;;3.90;;
21814;SDS011;11069;48.988;8.450;2023-04-09T10:36:44;4.18;;;3.75;;
21814;SDS011;11069;48.988;8.450;2023-04-09T10:39:30;3.63;;;3.33;;
21814;SDS011;11069;48.988;8.450;2023-04-09T10:42:00;4.18;;;3.78;;
21814;SDS011;11069;48.988;8.450;2023-04-09T10:44:31;4.40;;;4.00;;
21814;SDS011;11069;48.988;8.450;2023-04-09T10:46:57;5.22;;;4.20;;
21814;SDS011;11069;48.988;8.450;2023-04-09T10:49:23;4.90;;;4.40;;
21814;SDS011;11069;48.988;8.450;2023-04-09T10:52:00;5.28;;;4.78;;
21814;SDS011;11069;48.988;8.450;2023-04-09T10:59:33;4.80;;;4.30;;
21814;SDS011;11069;48.988;8.450;2023-04-09T11:01:58;4.40;;;4.00;;
21814;SDS011;11069;48.988;8.450;2023-04-09T11:04:25;5.70;;;4.43;;
21814;SDS011;11069;48.988;8.450;2023-04-09T11:07:21;4.25;;;3.85;;
21814;SDS011;11069;48.988;8.450;2023-04-09T11:09:49;5.03;;;4.50;;
21814;SDS011;11069;48.988;8.450;2023-04-09T11:12:15;4.65;;;4.13;;
21814;SDS011;11069;48.988;8.450;2023-04-09T11:14:40;5.40;;;4.35;;
21814;SDS011;11069;48.988;8.450;2023-04-09T11:17:09;4.30;;;3.90;;
21814;SDS011;11069;48.988;8.450;2023-04-09T11:19:34;4.25;;;3.85;;
21814;SDS011;11069;48.988;8.450;2023-04-09T11:22:02;4.53;;;4.13;;
21814;SDS011;11069;48.988;8.450;2023-04-09T11:24:43;4.63;;;4.23;;
21814;SDS011;11069;48.988;8.450;2023-04-09T11:27:10;5.13;;;4.63;;
21814;SDS011;11069;48.988;8.450;2023-04-09T11:29:37;4.88;;;4.30;;
21814;SDS011;11069;48.988;8.450;2023-04-09T11:32:03;4.43;;;4.03;;
21814;SDS011;11069;48.988;8.450;2023-04-09T11:34:31;4.90;;;4.40;;
21814;SDS011;11069;48.988;8.450;2023-04-09T11:36:57;5.15;;;4.65;;
21814;SDS011;11069;48.988;8.450;2023-04-09T11:39:27;6.13;;;4.93;;
21814;SDS011;11069;48.988;8.450;2023-04-09T11:41:52;4.35;;;3.95;;
21814;SDS011;11069;48.988;8.450;2023-04-09T11:44:19;5.03;;;4.53;;
21814;SDS011;11069;48.988;8.450;2023-04-09T11:46:45;4.90;;;4.35;;
21814;SDS011;11069;48.988;8.450;2023-04-09T11:49:11;5.15;;;4.65;;
21814;SDS011;11069;48.988;8.450;2023-04-09T11:51:37;4.78;;;4.30;;
21814;SDS011;11069;48.988;8.450;2023-04-09T11:54:07;4.50;;;4.10;;
21814;SDS011;11069;48.988;8.450;2023-04-09T11:56:34;5.20;;;4.70;;
21814;SDS011;11069;48.988;8.450;2023-04-09T11:59:00;4.47;;;4.07;;
21814;SDS011;11069;48.988;8.450;2023-04-09T12:01:32;4.50;;;4.10;;
21814;SDS011;11069;48.988;8.450;2023-04-09T12:03:59;5.38;;;4.82;;
21814;SDS011;11069;48.988;8.450;2023-04-09T12:06:25;5.70;;;4.78;;
21814;SDS011;11069;48.988;8.450;2023-04-09T12:08:57;4.40;;;4.00;;
21814;SDS011;11069;48.988;8.450;2023-04-09T12:11:27;3.92;;;3.50;;
21814;SDS011;11069;48.988;8.450;2023-04-09T12:14:00;3.55;;;3.25;;
21814;SDS011;11069;48.988;8.450;2023-04-09T12:16:33;3.97;;;3.58;;
21814;SDS011;11069;48.988;8.450;2023-04-09T12:19:03;4.47;;;3.87;;
21814;SDS011;11069;48.988;8.450;2023-04-09T12:24:25;4.50;;;4.05;;
21814;SDS011;11069;48.988;8.450;2023-04-09T12:27:01;5.40;;;4.70;;
21814;SDS011;11069;48.988;8.450;2023-04-09T12:29:29;5.80;;;4.30;;
21814;SDS011;11069;48.988;8.450;2023-04-09T12:31:57;4.90;;;4.38;;
21814;SDS011;11069;48.988;8.450;2023-04-09T12:34:22;4.20;;;3.80;;
21814;SDS011;11069;48.988;8.450;2023-04-09T12:36:48;4.30;;;3.90;;
21814;SDS011;11069;48.988;8.450;2023-04-09T12:39:14;4.18;;;3.78;;
21814;SDS011;11069;48.988;8.450;2023-04-09T12:41:39;4.05;;;3.65;;
21814;SDS011;11069;48.988;8.450;2023-04-09T12:44:05;4.28;;;3.88;;
21814;SDS011;11069;48.988;8.450;2023-04-09T12:46:34;4.68;;;3.60;;
21814;SDS011;11069;48.988;8.450;2023-04-09T12:49:03;3.92;;;3.60;;
21814;SDS011;11069;48.988;8.450;2023-04-09T12:51:29;4.18;;;3.78;;
21814;SDS011;11069;48.988;8.450;2023-04-09T12:53:55;4.22;;;3.83;;
21814;SDS011;11069;48.988;8.450;2023-04-09T12:56:20;4.63;;;4.20;;
21814;SDS011;11069;48.988;8.450;2023-04-09T12:58:46;4.20;;;3.80;;
21814;SDS011;11069;48.988;8.450;2023-04-09T13:01:15;3.38;;;3.08;;
21814;SDS011;11069;48.988;8.450;2023-04-09T13:03:41;3.10;;;2.80;;
21814;SDS011;11069;48.988;8.450;2023-04-09T13:06:06;3.30;;;3.00;;
21814;SDS011;11069;48.988;8.450;2023-04-09T13:08:32;3.40;;;3.10;;
21814;SDS011;11069;48.988;8.450;2023-04-09T13:11:00;3.13;;;2.88;;
21814;SDS011;11069;48.988;8.450;2023-04-09T13:13:26;3.70;;;3.40;;
21814;SDS011;11069;48.988;8.450;2023-04-09T13:15:52;3.00;;;2.80;;
21814;SDS011;11069;48.988;8.450;2023-04-09T13:18:18;3.40;;;3.10;;
21814;SDS011;11069;48.988;8.450;2023-04-09T13:20:43;3.33;;;3.03;;
21814;SDS011;11069;48.988;8.450;2023-04-09T13:23:09;4.45;;;3.95;;
21814;SDS011;11069;48.988;8.450;2023-04-09T13:25:34;4.47;;;3.53;;
21814;SDS011;11069;48.988;8.450;2023-04-09T13:28:00;3.72;;;3.42;;
21814;SDS011;11069;48.988;8.450;2023-04-09T13:30:26;3.15;;;2.85;;
21814;SDS011;11069;48.988;8.450;2023-04-09T13:32:51;3.13;;;2.88;;
21814;SDS011;11069;48.988;8.450;2023-04-09T13:35:17;3.58;;;3.28;;
21814;SDS011;11069;48.988;8.450;2023-04-09T13:37:43;4.03;;;3.63;;
21814;SDS011;11069;48.988;8.450;2023-04-09T13:40:08;4.15;;;3.78;;
21814;SDS011;11069;48.988;8.450;2023-04-09T13:42:34;3.90;;;3.60;;
21814;SDS011;11069;48.988;8.450;2023-04-09T13:45:01;3.97;;;3.58;;
21814;SDS011;11069;48.988;8.450;2023-04-09T13:47:27;4.35;;;3.95;;
21814;SDS011;11069;48.988;8.450;2023-04-09T13:49:56;3.80;;;3.47;;
21814;SDS011;11069;48.988;8.450;2023-04-09T13:52:21;3.88;;;3.58;;
21814;SDS011;11069;48.988;8.450;2023-04-09T13:54:48;4.55;;;3.78;;
21814;SDS011;11069;48.988;8.450;2023-04-09T13:57:13;4.20;;;3.55;;
21814;SDS011;11069;48.988;8.450;2023-04-09T13:59:40;4.20;;;3.80;;
21814;SDS011;11069;48.988;8.450;2023-04-09T14:02:06;3.92;;;3.63;;
21814;SDS011;11069;48.988;8.450;2023-04-09T14:04:32;3.92;;;3.63;;
21814;SDS011;11069;48.988;8.450;2023-04-09T14:06:58;3.72;;;3.40;;
21814;SDS011;11069;48.988;8.450;2023-04-09T14:09:23;3.60;;;3.30;;
21814;SDS011;11069;48.988;8.450;2023-04-09T14:11:49;3.92;;;3.60;;
21814;SDS011;11069;48.988;8.450;2023-04-09T14:14:18;4.80;;;4.40;;
21814;SDS011;11069;48.988;8.450;2023-04-09T14:16:44;4.18;;;3.78;;
21814;SDS011;11069;48.988;8.450;2023-04-09T14:19:10;4.53;;;3.45;;
21814;SDS011;11069;48.988;8.450;2023-04-09T14:21:36;3.70;;;3.30;;
21814;SDS011;11069;48.988;8.450;2023-04-09T14:24:02;3.58;;;3.28;;
21814;SDS011;11069;48.988;8.450;2023-04-09T14:26:28;3.70;;;3.40;;
21814;SDS011;11069;48.988;8.450;2023-04-09T14:28:53;3.65;;;3.35;;
21814;SDS011;11069;48.988;8.450;2023-04-09T14:31:19;3.63;;;3.33;;
21814;SDS011;11069;48.988;8.450;2023-04-09T14:33:45;3.50;;;3.20;;
21814;SDS011;11069;48.988;8.450;2023-04-09T14:36:14;4.00;;;3.60;;
21814;SDS011;11069;48.988;8.450;2023-04-09T14:38:43;3.90;;;3.47;;
21814;SDS011;11069;48.988;8.450;2023-04-09T14:41:08;4.40;;;4.00;;
21814;SDS011;11069;48.988;8.450;2023-04-09T14:43:34;5.13;;;3.70;;
21814;SDS011;11069;48.988;8.450;2023-04-09T14:45:59;4.20;;;3.80;;
21814;SDS011;11069;48.988;8.450;2023-04-09T14:48:25;4.03;;;3.63;;
21814;SDS011;11069;48.988;8.450;2023-04-09T14:50:50;4.03;;;3.63;;
21814;SDS011;11069;48.988;8.450;2023-04-09T14:53:16;3.72;;;3.42;;
21814;SDS011;11069;48.988;8.450;2023-04-09T14:55:42;3.72;;;3.40;;
21814;SDS011;11069;48.988;8.450;2023-04-09T14:58:10;3.58;;;3.28;;
21814;SDS011;11069;48.988;8.450;2023-04-09T15:00:36;3.50;;;3.20;;
21814;SDS011;11069;48.988;8.450;2023-04-09T15:03:02;3.70;;;3.40;;
21814;SDS011;11069;48.988;8.450;2023-04-09T15:05:28;4.05;;;3.65;;
21814;SDS011;11069;48.988;8.450;2023-04-09T15:07:54;3.90;;;3.60;;
21814;SDS011;11069;48.988;8.450;2023-04-09T15:10:20;4.25;;;3.85;;
21814;SDS011;11069;48.988;8.450;2023-04-09T15:12:45;3.78;;;3.30;;
21814;SDS011;11069;48.988;8.450;2023-04-09T15:15:11;7.65;;;3.88;;